sensor_id;sensor_type;location;lat;lon;timestamp;temperature;humidity
1165;DHT22;571;50.930;6.926;2023-01-10T03:47:40;7.90;98.60
1165;DHT22;571;50.930;6.926;2023-01-10T03:50:12;8.00;98.40
1165;DHT22;571;50.930;6.926;2023-01-10T03:52:41;8.10;98.40
1165;DHT22;571;50.930;6.926;2023-01-10T03:55:11;8.00;98.30
1165;DHT22;571;50.930;6.926;2023-01-10T03:57:41;8.10;98.30
1165;DHT22;571;50.930;6.926;2023-01-10T04:00:11;8.10;98.30
1165;DHT22;571;50.930;6.926;2023-01-10T04:02:40;8.10;98.20
1165;DHT22;571;50.930;6.926;2023-01-10T04:05:07;8.00;98.50
1165;DHT22;571;50.930;6.926;2023-01-10T04:07:34;8.00;98.30
1165;DHT22;571;50.930;6.926;2023-01-10T04:10:01;8.00;98.30
1165;DHT22;571;50.930;6.926;2023-01-10T04:12:27;8.00;98.20
1165;DHT22;571;50.930;6.926;2023-01-10T04:14:54;8.10;98.10
1165;DHT22;571;50.930;6.926;2023-01-10T04:17:21;8.10;98.00
1165;DHT22;571;50.930;6.926;2023-01-10T04:19:49;8.00;98.10
1165;DHT22;571;50.930;6.926;2023-01-10T04:22:15;7.90;98.40
1165;DHT22;571;50.930;6.926;2023-01-10T04:24:42;8.00;98.20
1165;DHT22;571;50.930;6.926;2023-01-10T04:27:11;7.90;98.30
1165;DHT22;571;50.930;6.926;2023-01-10T04:29:38;7.90;98.40
1165;DHT22;571;50.930;6.926;2023-01-10T04:32:04;7.90;98.40
1165;DHT22;571;50.930;6.926;2023-01-10T04:34:31;7.70;98.50
1165;DHT22;571;50.930;6.926;2023-01-10T04:36:59;7.70;98.70
1165;DHT22;571;50.930;6.926;2023-01-10T04:39:26;7.80;98.40
1165;DHT22;571;50.930;6.926;2023-01-10T04:41:53;7.90;98.40
1165;DHT22;571;50.930;6.926;2023-01-10T04:44:19;7.80;98.60
1165;DHT22;571;50.930;6.926;2023-01-10T04:46:47;7.80;98.40
1165;DHT22;571;50.930;6.926;2023-01-10T04:49:13;7.80;98.30
1165;DHT22;571;50.930;6.926;2023-01-10T04:51:40;7.80;98.40
1165;DHT22;571;50.930;6.926;2023-01-10T04:54:08;7.80;98.50
1165;DHT22;571;50.930;6.926;2023-01-10T04:56:35;7.70;98.40
1165;DHT22;571;50.930;6.926;2023-01-10T04:59:02;7.70;98.60
1165;DHT22;571;50.930;6.926;2023-01-10T05:01:31;7.70;98.30
1165;DHT22;571;50.930;6.926;2023-01-10T05:03:59;7.70;98.50
1165;DHT22;571;50.930;6.926;2023-01-10T05:06:27;7.70;98.50
1165;DHT22;571;50.930;6.926;2023-01-10T05:08:55;7.70;98.40
1165;DHT22;571;50.930;6.926;2023-01-10T05:11:23;7.70;98.40
1165;DHT22;571;50.930;6.926;2023-01-10T05:13:50;7.70;98.40
1165;DHT22;571;50.930;6.926;2023-01-10T05:16:17;7.60;98.60
1165;DHT22;571;50.930;6.926;2023-01-10T05:18:43;7.60;98.40
1165;DHT22;571;50.930;6.926;2023-01-10T05:21:13;7.70;98.40
1165;DHT22;571;50.930;6.926;2023-01-10T05:23:40;7.60;98.50
1165;DHT22;571;50.930;6.926;2023-01-10T05:26:08;7.60;98.70
1165;DHT22;571;50.930;6.926;2023-01-10T05:28:36;7.70;98.50
1165;DHT22;571;50.930;6.926;2023-01-10T05:31:05;7.70;98.40
1165;DHT22;571;50.930;6.926;2023-01-10T05:33:32;7.80;98.20
1165;DHT22;571;50.930;6.926;2023-01-10T05:36:00;7.80;98.20
1165;DHT22;571;50.930;6.926;2023-01-10T05:38:27;7.70;98.20
1165;DHT22;571;50.930;6.926;2023-01-10T05:40:54;7.80;98.20
1165;DHT22;571;50.930;6.926;2023-01-10T05:43:21;7.80;98.00
1165;DHT22;571;50.930;6.926;2023-01-10T05:45:50;7.80;98.00
1165;DHT22;571;50.930;6.926;2023-01-10T05:48:17;7.60;98.40
1165;DHT22;571;50.930;6.926;2023-01-10T05:50:44;7.70;98.50
1165;DHT22;571;50.930;6.926;2023-01-10T05:53:11;7.70;98.40
1165;DHT22;571;50.930;6.926;2023-01-10T05:55:37;7.60;98.30
1165;DHT22;571;50.930;6.926;2023-01-10T05:58:04;7.70;98.20
1165;DHT22;571;50.930;6.926;2023-01-10T06:00:31;7.60;98.20
1165;DHT22;571;50.930;6.926;2023-01-10T06:02:59;7.60;98.20
1165;DHT22;571;50.930;6.926;2023-01-10T06:05:26;7.60;98.30
1165;DHT22;571;50.930;6.926;2023-01-10T06:07:52;7.40;98.50
1165;DHT22;571;50.930;6.926;2023-01-10T06:10:19;7.50;98.40
1165;DHT22;571;50.930;6.926;2023-01-10T06:12:46;7.50;98.30
1165;DHT22;571;50.930;6.926;2023-01-10T06:15:14;7.50;98.30
1165;DHT22;571;50.930;6.926;2023-01-10T06:17:41;7.50;98.30
1165;DHT22;571;50.930;6.926;2023-01-10T06:20:12;7.40;98.60
1165;DHT22;571;50.930;6.926;2023-01-10T06:22:39;7.40;98.60
1165;DHT22;571;50.930;6.926;2023-01-10T06:25:08;7.50;98.60
1165;DHT22;571;50.930;6.926;2023-01-10T06:27:35;7.50;98.40
1165;DHT22;571;50.930;6.926;2023-01-10T06:30:04;7.60;98.40
1165;DHT22;571;50.930;6.926;2023-01-10T06:32:31;7.60;98.30
1165;DHT22;571;50.930;6.926;2023-01-10T06:34:57;7.60;98.20
1165;DHT22;571;50.930;6.926;2023-01-10T06:37:25;7.60;98.30
1165;DHT22;571;50.930;6.926;2023-01-10T06:39:52;7.50;98.30
1165;DHT22;571;50.930;6.926;2023-01-10T06:42:19;7.50;98.20
1165;DHT22;571;50.930;6.926;2023-01-10T06:44:46;7.40;98.70
1165;DHT22;571;50.930;6.926;2023-01-10T06:47:13;7.50;98.50
1165;DHT22;571;50.930;6.926;2023-01-10T06:49:39;7.50;98.70
1165;DHT22;571;50.930;6.926;2023-01-10T06:52:06;7.60;98.50
1165;DHT22;571;50.930;6.926;2023-01-10T06:54:34;7.60;98.30
1165;DHT22;571;50.930;6.926;2023-01-10T06:57:01;7.60;98.30
1165;DHT22;571;50.930;6.926;2023-01-10T06:59:27;7.50;98.50
1165;DHT22;571;50.930;6.926;2023-01-10T07:01:54;7.50;98.50
1165;DHT22;571;50.930;6.926;2023-01-10T07:04:21;7.40;98.50
1165;DHT22;571;50.930;6.926;2023-01-10T07:06:48;7.40;98.70
1165;DHT22;571;50.930;6.926;2023-01-10T07:09:14;7.40;98.60
1165;DHT22;571;50.930;6.926;2023-01-10T07:11:42;7.40;98.50
1165;DHT22;571;50.930;6.926;2023-01-10T07:14:09;7.40;98.40
1165;DHT22;571;50.930;6.926;2023-01-10T07:16:36;7.50;98.10
1165;DHT22;571;50.930;6.926;2023-01-10T07:19:02;7.40;98.30
1165;DHT22;571;50.930;6.926;2023-01-10T07:21:29;7.40;98.30
1165;DHT22;571;50.930;6.926;2023-01-10T07:23:56;7.30;98.40
1165;DHT22;571;50.930;6.926;2023-01-10T07:26:23;7.20;99.00
1165;DHT22;571;50.930;6.926;2023-01-10T07:28:51;7.10;99.10
1165;DHT22;571;50.930;6.926;2023-01-10T07:31:19;7.20;99.10
1165;DHT22;571;50.930;6.926;2023-01-10T07:33:49;7.10;99.40
1165;DHT22;571;50.930;6.926;2023-01-10T07:36:15;7.10;99.60
1165;DHT22;571;50.930;6.926;2023-01-10T07:38:42;7.20;99.40
1165;DHT22;571;50.930;6.926;2023-01-10T07:41:09;7.30;99.30
1165;DHT22;571;50.930;6.926;2023-01-10T07:43:36;7.30;99.20
1165;DHT22;571;50.930;6.926;2023-01-10T07:46:05;7.20;99.50
1165;DHT22;571;50.930;6.926;2023-01-10T07:48:33;7.30;99.40
1165;DHT22;571;50.930;6.926;2023-01-10T07:51:01;7.10;99.90
1165;DHT22;571;50.930;6.926;2023-01-10T07:53:28;7.10;99.60
1165;DHT22;571;50.930;6.926;2023-01-10T07:55:58;7.20;99.60
1165;DHT22;571;50.930;6.926;2023-01-10T07:58:25;7.30;99.20
1165;DHT22;571;50.930;6.926;2023-01-10T08:00:55;7.20;99.60
1165;DHT22;571;50.930;6.926;2023-01-10T08:03:23;7.00;99.90
1165;DHT22;571;50.930;6.926;2023-01-10T08:05:56;7.10;99.80
1165;DHT22;571;50.930;6.926;2023-01-10T08:08:24;7.30;99.20
1165;DHT22;571;50.930;6.926;2023-01-10T08:10:50;7.20;99.30
1165;DHT22;571;50.930;6.926;2023-01-10T08:13:17;7.20;99.70
1165;DHT22;571;50.930;6.926;2023-01-10T08:15:44;7.20;99.40
1165;DHT22;571;50.930;6.926;2023-01-10T08:18:11;7.30;99.20
1165;DHT22;571;50.930;6.926;2023-01-10T08:20:39;7.20;99.60
1165;DHT22;571;50.930;6.926;2023-01-10T08:23:06;7.10;99.90
1165;DHT22;571;50.930;6.926;2023-01-10T08:25:33;7.20;99.70
1165;DHT22;571;50.930;6.926;2023-01-10T08:28:00;7.20;99.30
1165;DHT22;571;50.930;6.926;2023-01-10T08:30:26;7.20;99.40
1165;DHT22;571;50.930;6.926;2023-01-10T08:32:53;7.20;99.40
1165;DHT22;571;50.930;6.926;2023-01-10T08:35:20;7.10;99.60
1165;DHT22;571;50.930;6.926;2023-01-10T08:37:48;7.10;99.70
1165;DHT22;571;50.930;6.926;2023-01-10T08:40:15;7.00;99.90
1165;DHT22;571;50.930;6.926;2023-01-10T08:42:42;6.90;99.90
1165;DHT22;571;50.930;6.926;2023-01-10T08:45:09;7.00;99.90
1165;DHT22;571;50.930;6.926;2023-01-10T08:47:36;7.10;99.60
1165;DHT22;571;50.930;6.926;2023-01-10T08:50:03;7.30;99.30
1165;DHT22;571;50.930;6.926;2023-01-10T08:52:30;7.30;99.30
1165;DHT22;571;50.930;6.926;2023-01-10T08:55:00;7.20;99.30
1165;DHT22;571;50.930;6.926;2023-01-10T08:57:27;7.40;99.10
1165;DHT22;571;50.930;6.926;2023-01-10T08:59:54;7.40;99.00
1165;DHT22;571;50.930;6.926;2023-01-10T09:02:21;7.50;99.00
1165;DHT22;571;50.930;6.926;2023-01-10T09:04:47;7.50;98.70
1165;DHT22;571;50.930;6.926;2023-01-10T09:07:14;7.60;98.40
1165;DHT22;571;50.930;6.926;2023-01-10T09:09:41;7.60;98.40
1165;DHT22;571;50.930;6.926;2023-01-10T09:12:09;7.50;99.20
1165;DHT22;571;50.930;6.926;2023-01-10T09:14:50;7.50;98.90
1165;DHT22;571;50.930;6.926;2023-01-10T09:17:16;7.40;99.00
1165;DHT22;571;50.930;6.926;2023-01-10T09:19:43;7.40;99.30
1165;DHT22;571;50.930;6.926;2023-01-10T09:22:10;7.30;99.60
1165;DHT22;571;50.930;6.926;2023-01-10T09:24:36;7.40;99.40
1165;DHT22;571;50.930;6.926;2023-01-10T09:27:04;7.40;99.80
1165;DHT22;571;50.930;6.926;2023-01-10T09:29:32;7.50;99.20
1165;DHT22;571;50.930;6.926;2023-01-10T09:31:58;7.50;99.30
1165;DHT22;571;50.930;6.926;2023-01-10T09:34:26;7.50;99.20
1165;DHT22;571;50.930;6.926;2023-01-10T09:36:53;7.50;99.40
1165;DHT22;571;50.930;6.926;2023-01-10T09:39:20;7.70;98.70
1165;DHT22;571;50.930;6.926;2023-01-10T09:42:04;7.70;98.80
1165;DHT22;571;50.930;6.926;2023-01-10T09:44:44;7.80;98.40
1165;DHT22;571;50.930;6.926;2023-01-10T09:47:18;7.90;98.20
1165;DHT22;571;50.930;6.926;2023-01-10T09:49:51;8.10;98.10
1165;DHT22;571;50.930;6.926;2023-01-10T09:52:23;8.10;97.60
1165;DHT22;571;50.930;6.926;2023-01-10T09:54:54;8.10;97.70
1165;DHT22;571;50.930;6.926;2023-01-10T09:57:22;8.20;97.40
1165;DHT22;571;50.930;6.926;2023-01-10T09:59:52;8.20;97.50
1165;DHT22;571;50.930;6.926;2023-01-10T10:02:25;8.30;97.40
1165;DHT22;571;50.930;6.926;2023-01-10T10:05:03;8.30;97.40
1165;DHT22;571;50.930;6.926;2023-01-10T10:07:33;8.30;97.60
1165;DHT22;571;50.930;6.926;2023-01-10T10:10:00;8.40;97.30
1165;DHT22;571;50.930;6.926;2023-01-10T10:12:32;8.30;97.20
1165;DHT22;571;50.930;6.926;2023-01-10T10:15:16;8.40;97.00
1165;DHT22;571;50.930;6.926;2023-01-10T10:17:51;8.60;97.10
1165;DHT22;571;50.930;6.926;2023-01-10T10:20:27;8.50;97.20
1165;DHT22;571;50.930;6.926;2023-01-10T10:23:11;8.60;97.30
1165;DHT22;571;50.930;6.926;2023-01-10T10:25:50;8.80;96.50
1165;DHT22;571;50.930;6.926;2023-01-10T10:28:34;8.90;96.30
1165;DHT22;571;50.930;6.926;2023-01-10T10:31:13;8.90;96.50
1165;DHT22;571;50.930;6.926;2023-01-10T10:33:51;9.00;96.20
1165;DHT22;571;50.930;6.926;2023-01-10T10:36:24;9.00;96.10
1165;DHT22;571;50.930;6.926;2023-01-10T10:38:56;9.10;95.90
1165;DHT22;571;50.930;6.926;2023-01-10T10:41:30;9.10;95.70
1165;DHT22;571;50.930;6.926;2023-01-10T10:44:01;9.00;96.10
1165;DHT22;571;50.930;6.926;2023-01-10T10:46:31;9.00;96.20
1165;DHT22;571;50.930;6.926;2023-01-10T10:48:59;9.10;96.30
1165;DHT22;571;50.930;6.926;2023-01-10T10:51:38;9.30;95.90
1165;DHT22;571;50.930;6.926;2023-01-10T10:54:10;9.40;95.90
1165;DHT22;571;50.930;6.926;2023-01-10T10:56:38;9.50;95.70
1165;DHT22;571;50.930;6.926;2023-01-10T10:59:05;9.50;95.40
1165;DHT22;571;50.930;6.926;2023-01-10T11:01:33;9.70;95.30
1165;DHT22;571;50.930;6.926;2023-01-10T11:04:02;9.70;94.90
1165;DHT22;571;50.930;6.926;2023-01-10T11:06:32;9.80;95.00
1165;DHT22;571;50.930;6.926;2023-01-10T11:09:03;9.90;94.40
1165;DHT22;571;50.930;6.926;2023-01-10T11:11:32;9.90;94.30
1165;DHT22;571;50.930;6.926;2023-01-10T11:14:02;9.90;94.50
1165;DHT22;571;50.930;6.926;2023-01-10T11:16:30;9.90;94.00
1165;DHT22;571;50.930;6.926;2023-01-10T11:19:18;9.90;93.70
1165;DHT22;571;50.930;6.926;2023-01-10T11:21:48;9.90;93.60
1165;DHT22;571;50.930;6.926;2023-01-10T11:24:37;9.80;93.90
1165;DHT22;571;50.930;6.926;2023-01-10T11:27:14;9.90;93.20
1165;DHT22;571;50.930;6.926;2023-01-10T11:29:45;9.90;93.20
1165;DHT22;571;50.930;6.926;2023-01-10T11:32:14;9.90;93.40
1165;DHT22;571;50.930;6.926;2023-01-10T11:34:49;9.80;93.20
1165;DHT22;571;50.930;6.926;2023-01-10T11:37:20;9.80;93.10
1165;DHT22;571;50.930;6.926;2023-01-10T11:40:17;10.00;92.70
1165;DHT22;571;50.930;6.926;2023-01-10T11:42:44;10.00;92.40
1165;DHT22;571;50.930;6.926;2023-01-10T11:45:21;10.00;92.30
1165;DHT22;571;50.930;6.926;2023-01-10T11:47:50;10.00;91.90
1165;DHT22;571;50.930;6.926;2023-01-10T11:50:23;10.10;92.30
1165;DHT22;571;50.930;6.926;2023-01-10T11:52:51;10.10;92.30
1165;DHT22;571;50.930;6.926;2023-01-10T11:55:19;10.00;92.10
1165;DHT22;571;50.930;6.926;2023-01-10T11:57:59;10.00;91.80
1165;DHT22;571;50.930;6.926;2023-01-10T12:00:32;10.10;91.90
1165;DHT22;571;50.930;6.926;2023-01-10T12:03:00;10.10;92.00
1165;DHT22;571;50.930;6.926;2023-01-10T12:05:28;10.20;91.80
1165;DHT22;571;50.930;6.926;2023-01-10T12:07:57;10.10;91.80
1165;DHT22;571;50.930;6.926;2023-01-10T12:10:28;10.10;91.40
1165;DHT22;571;50.930;6.926;2023-01-10T12:12:56;10.00;91.90
1165;DHT22;571;50.930;6.926;2023-01-10T12:15:26;10.20;91.70
1165;DHT22;571;50.930;6.926;2023-01-10T12:17:54;10.30;91.80
1165;DHT22;571;50.930;6.926;2023-01-10T12:20:22;10.20;91.90
1165;DHT22;571;50.930;6.926;2023-01-10T12:22:57;10.20;91.90
1165;DHT22;571;50.930;6.926;2023-01-10T12:25:31;10.10;91.20
1165;DHT22;571;50.930;6.926;2023-01-10T12:27:59;10.10;92.00
1165;DHT22;571;50.930;6.926;2023-01-10T12:30:30;10.30;91.50
1165;DHT22;571;50.930;6.926;2023-01-10T12:33:01;10.30;91.50
1165;DHT22;571;50.930;6.926;2023-01-10T12:35:37;10.20;91.40
1165;DHT22;571;50.930;6.926;2023-01-10T12:38:16;10.30;91.60
1165;DHT22;571;50.930;6.926;2023-01-10T12:40:50;10.30;91.40
1165;DHT22;571;50.930;6.926;2023-01-10T12:43:23;10.30;91.40
1165;DHT22;571;50.930;6.926;2023-01-10T12:46:14;10.30;90.80
1165;DHT22;571;50.930;6.926;2023-01-10T12:48:48;10.20;91.50
1165;DHT22;571;50.930;6.926;2023-01-10T12:51:19;10.10;91.30
1165;DHT22;571;50.930;6.926;2023-01-10T12:53:53;10.10;91.10
1165;DHT22;571;50.930;6.926;2023-01-10T12:56:20;10.10;91.50
1165;DHT22;571;50.930;6.926;2023-01-10T12:58:49;10.10;91.20
1165;DHT22;571;50.930;6.926;2023-01-10T13:01:20;10.20;91.20
1165;DHT22;571;50.930;6.926;2023-01-10T13:03:53;10.20;91.20
1165;DHT22;571;50.930;6.926;2023-01-10T13:06:26;10.10;90.90
1165;DHT22;571;50.930;6.926;2023-01-10T13:08:56;10.10;91.20
1165;DHT22;571;50.930;6.926;2023-01-10T13:11:27;10.20;90.90
1165;DHT22;571;50.930;6.926;2023-01-10T13:14:00;10.30;90.80
1165;DHT22;571;50.930;6.926;2023-01-10T13:16:35;10.30;90.50
1165;DHT22;571;50.930;6.926;2023-01-10T13:19:22;10.30;90.80
1165;DHT22;571;50.930;6.926;2023-01-10T13:21:50;10.20;90.60
1165;DHT22;571;50.930;6.926;2023-01-10T13:24:38;10.20;91.20
1165;DHT22;571;50.930;6.926;2023-01-10T13:27:04;10.10;91.30
1165;DHT22;571;50.930;6.926;2023-01-10T13:29:38;10.20;91.20
1165;DHT22;571;50.930;6.926;2023-01-10T13:32:19;10.30;91.20
1165;DHT22;571;50.930;6.926;2023-01-10T13:34:47;10.10;90.80
1165;DHT22;571;50.930;6.926;2023-01-10T13:37:22;10.00;90.90
1165;DHT22;571;50.930;6.926;2023-01-10T13:39:53;10.20;91.00
1165;DHT22;571;50.930;6.926;2023-01-10T13:42:38;10.10;91.00
1165;DHT22;571;50.930;6.926;2023-01-10T13:45:25;10.10;91.10
1165;DHT22;571;50.930;6.926;2023-01-10T13:48:03;10.20;91.20
1165;DHT22;571;50.930;6.926;2023-01-10T13:50:51;10.10;91.30
1165;DHT22;571;50.930;6.926;2023-01-10T13:53:42;10.00;91.20
1165;DHT22;571;50.930;6.926;2023-01-10T13:56:36;10.10;90.80
1165;DHT22;571;50.930;6.926;2023-01-10T13:59:11;10.20;90.90
1165;DHT22;571;50.930;6.926;2023-01-10T14:01:58;10.10;91.10
1165;DHT22;571;50.930;6.926;2023-01-10T14:04:49;10.10;91.30
1165;DHT22;571;50.930;6.926;2023-01-10T14:07:24;9.90;91.70
1165;DHT22;571;50.930;6.926;2023-01-10T14:09:57;9.90;91.90
1165;DHT22;571;50.930;6.926;2023-01-10T14:12:29;9.90;92.00
1165;DHT22;571;50.930;6.926;2023-01-10T14:15:02;10.00;91.40
1165;DHT22;571;50.930;6.926;2023-01-10T14:17:32;9.90;92.00
1165;DHT22;571;50.930;6.926;2023-01-10T14:20:16;9.90;92.10
1165;DHT22;571;50.930;6.926;2023-01-10T14:23:00;9.90;92.10
1165;DHT22;571;50.930;6.926;2023-01-10T14:25:29;10.00;91.40
1165;DHT22;571;50.930;6.926;2023-01-10T14:27:59;9.90;91.90
1165;DHT22;571;50.930;6.926;2023-01-10T14:30:29;9.90;91.90
1165;DHT22;571;50.930;6.926;2023-01-10T14:33:01;9.90;92.10
1165;DHT22;571;50.930;6.926;2023-01-10T14:35:35;9.80;92.30
1165;DHT22;571;50.930;6.926;2023-01-10T14:38:03;9.80;92.30
1165;DHT22;571;50.930;6.926;2023-01-10T14:40:35;9.70;92.30
1165;DHT22;571;50.930;6.926;2023-01-10T14:43:08;9.70;92.10
1165;DHT22;571;50.930;6.926;2023-01-10T14:45:40;9.60;92.80
1165;DHT22;571;50.930;6.926;2023-01-10T14:48:28;9.70;92.60
1165;DHT22;571;50.930;6.926;2023-01-10T14:51:09;9.50;92.90
1165;DHT22;571;50.930;6.926;2023-01-10T14:53:38;9.50;93.10
1165;DHT22;571;50.930;6.926;2023-01-10T14:56:17;9.70;92.90
1165;DHT22;571;50.930;6.926;2023-01-10T14:58:45;9.80;92.40
1165;DHT22;571;50.930;6.926;2023-01-10T15:01:15;9.70;92.60
1165;DHT22;571;50.930;6.926;2023-01-10T15:03:45;9.70;92.30
1165;DHT22;571;50.930;6.926;2023-01-10T15:06:12;9.60;92.80
1165;DHT22;571;50.930;6.926;2023-01-10T15:08:39;9.50;92.90
1165;DHT22;571;50.930;6.926;2023-01-10T15:11:09;9.50;92.60
1165;DHT22;571;50.930;6.926;2023-01-10T15:13:42;9.60;92.80
1165;DHT22;571;50.930;6.926;2023-01-10T15:16:16;9.60;92.90
1165;DHT22;571;50.930;6.926;2023-01-10T15:18:44;9.50;92.90
1165;DHT22;571;50.930;6.926;2023-01-10T15:21:13;9.40;93.00
1165;DHT22;571;50.930;6.926;2023-01-10T15:23:42;9.40;93.60
1165;DHT22;571;50.930;6.926;2023-01-10T15:26:12;9.50;93.40
1165;DHT22;571;50.930;6.926;2023-01-10T15:28:41;9.40;93.20
1165;DHT22;571;50.930;6.926;2023-01-10T15:31:08;9.50;93.40
1165;DHT22;571;50.930;6.926;2023-01-10T15:33:43;9.40;93.60
1165;DHT22;571;50.930;6.926;2023-01-10T15:36:13;9.50;93.40
1165;DHT22;571;50.930;6.926;2023-01-10T15:38:43;9.40;93.60
1165;DHT22;571;50.930;6.926;2023-01-10T15:41:16;9.30;94.00
1165;DHT22;571;50.930;6.926;2023-01-10T15:43:43;9.30;94.20
1165;DHT22;571;50.930;6.926;2023-01-10T15:46:17;9.40;94.40
1165;DHT22;571;50.930;6.926;2023-01-10T15:48:54;9.30;94.40
1165;DHT22;571;50.930;6.926;2023-01-10T15:51:26;9.20;94.90
1165;DHT22;571;50.930;6.926;2023-01-10T15:53:56;9.30;94.80
1165;DHT22;571;50.930;6.926;2023-01-10T15:56:30;9.20;95.50
1165;DHT22;571;50.930;6.926;2023-01-10T15:58:59;9.20;95.80
1165;DHT22;571;50.930;6.926;2023-01-10T16:01:26;9.10;96.50
1165;DHT22;571;50.930;6.926;2023-01-10T16:03:56;9.00;96.80
1165;DHT22;571;50.930;6.926;2023-01-10T16:06:25;8.90;97.30
1165;DHT22;571;50.930;6.926;2023-01-10T16:08:54;8.90;97.80
1165;DHT22;571;50.930;6.926;2023-01-10T16:11:25;8.90;98.00
1165;DHT22;571;50.930;6.926;2023-01-10T16:14:10;8.90;98.20
1165;DHT22;571;50.930;6.926;2023-01-10T16:16:37;8.90;98.20
1165;DHT22;571;50.930;6.926;2023-01-10T16:19:06;9.00;98.40
1165;DHT22;571;50.930;6.926;2023-01-10T16:21:37;8.80;99.10
1165;DHT22;571;50.930;6.926;2023-01-10T16:24:05;8.80;99.40
1165;DHT22;571;50.930;6.926;2023-01-10T16:26:33;8.80;99.70
1165;DHT22;571;50.930;6.926;2023-01-10T16:28:59;8.80;99.90
1165;DHT22;571;50.930;6.926;2023-01-10T16:31:26;8.70;99.90
1165;DHT22;571;50.930;6.926;2023-01-10T16:33:53;8.80;99.90
1165;DHT22;571;50.930;6.926;2023-01-10T16:36:21;8.80;99.80
1165;DHT22;571;50.930;6.926;2023-01-10T16:38:47;8.60;99.90
1165;DHT22;571;50.930;6.926;2023-01-10T16:41:15;8.70;99.90
1165;DHT22;571;50.930;6.926;2023-01-10T16:43:59;8.80;99.90
1165;DHT22;571;50.930;6.926;2023-01-10T16:46:26;8.50;99.90
1165;DHT22;571;50.930;6.926;2023-01-10T16:48:53;8.60;99.90
1165;DHT22;571;50.930;6.926;2023-01-10T16:51:24;8.60;99.90
1165;DHT22;571;50.930;6.926;2023-01-10T16:53:52;8.50;99.90
1165;DHT22;571;50.930;6.926;2023-01-10T16:56:20;8.70;99.90
1165;DHT22;571;50.930;6.926;2023-01-10T16:58:48;8.60;99.90
1165;DHT22;571;50.930;6.926;2023-01-10T17:01:18;8.50;99.90
1165;DHT22;571;50.930;6.926;2023-01-10T17:03:45;8.60;99.90
1165;DHT22;571;50.930;6.926;2023-01-10T17:06:13;8.60;99.90
1165;DHT22;571;50.930;6.926;2023-01-10T17:08:44;8.70;99.90
1165;DHT22;571;50.930;6.926;2023-01-10T17:11:15;8.60;99.90
1165;DHT22;571;50.930;6.926;2023-01-10T17:13:46;8.50;99.90
1165;DHT22;571;50.930;6.926;2023-01-10T17:16:14;8.50;99.90
1165;DHT22;571;50.930;6.926;2023-01-10T17:18:41;8.50;99.90
1165;DHT22;571;50.930;6.926;2023-01-10T17:21:13;8.40;99.90
1165;DHT22;571;50.930;6.926;2023-01-10T17:23:41;8.30;99.90
1165;DHT22;571;50.930;6.926;2023-01-10T17:26:15;8.40;99.90
1165;DHT22;571;50.930;6.926;2023-01-10T17:28:43;8.40;99.90
1165;DHT22;571;50.930;6.926;2023-01-10T17:31:11;8.30;99.90
1165;DHT22;571;50.930;6.926;2023-01-10T17:33:38;8.40;99.90
1165;DHT22;571;50.930;6.926;2023-01-10T17:36:06;8.30;99.90
1165;DHT22;571;50.930;6.926;2023-01-10T17:38:36;8.40;99.90
1165;DHT22;571;50.930;6.926;2023-01-10T17:41:03;8.50;99.90
1165;DHT22;571;50.930;6.926;2023-01-10T17:43:33;8.40;99.90
1165;DHT22;571;50.930;6.926;2023-01-10T17:46:02;8.30;99.90
1165;DHT22;571;50.930;6.926;2023-01-10T17:48:30;8.40;99.90
1165;DHT22;571;50.930;6.926;2023-01-10T17:50:59;8.40;99.90
1165;DHT22;571;50.930;6.926;2023-01-10T17:53:26;8.40;99.90
1165;DHT22;571;50.930;6.926;2023-01-10T17:55:53;8.40;99.90
1165;DHT22;571;50.930;6.926;2023-01-10T17:58:21;8.40;99.90
1165;DHT22;571;50.930;6.926;2023-01-10T18:00:49;8.30;99.90
1165;DHT22;571;50.930;6.926;2023-01-10T18:03:16;8.30;99.90
1165;DHT22;571;50.930;6.926;2023-01-10T18:05:50;8.30;99.90
1165;DHT22;571;50.930;6.926;2023-01-10T18:08:17;8.30;99.90
1165;DHT22;571;50.930;6.926;2023-01-10T18:10:44;8.20;99.90
1165;DHT22;571;50.930;6.926;2023-01-10T18:13:12;8.20;99.90
1165;DHT22;571;50.930;6.926;2023-01-10T18:15:40;8.20;99.90
1165;DHT22;571;50.930;6.926;2023-01-10T18:18:09;8.20;99.90
1165;DHT22;571;50.930;6.926;2023-01-10T18:20:38;8.20;99.90
1165;DHT22;571;50.930;6.926;2023-01-10T18:23:10;8.10;99.90
1165;DHT22;571;50.930;6.926;2023-01-10T18:25:51;8.10;99.90
1165;DHT22;571;50.930;6.926;2023-01-10T18:28:18;8.20;99.90
1165;DHT22;571;50.930;6.926;2023-01-10T18:30:45;8.20;99.90
1165;DHT22;571;50.930;6.926;2023-01-10T18:33:13;8.00;99.90
1165;DHT22;571;50.930;6.926;2023-01-10T18:35:40;8.10;99.90
1165;DHT22;571;50.930;6.926;2023-01-10T18:38:06;8.20;99.90
1165;DHT22;571;50.930;6.926;2023-01-10T18:40:33;8.10;99.90
1165;DHT22;571;50.930;6.926;2023-01-10T18:43:00;8.10;99.90
1165;DHT22;571;50.930;6.926;2023-01-10T18:45:27;8.10;99.90
1165;DHT22;571;50.930;6.926;2023-01-10T18:47:55;8.10;99.90
1165;DHT22;571;50.930;6.926;2023-01-10T18:50:25;8.00;99.90
1165;DHT22;571;50.930;6.926;2023-01-10T18:52:52;8.10;99.90
1165;DHT22;571;50.930;6.926;2023-01-10T18:55:19;8.10;99.90
1165;DHT22;571;50.930;6.926;2023-01-10T18:57:45;8.10;99.90
1165;DHT22;571;50.930;6.926;2023-01-10T19:00:14;8.00;99.90
1165;DHT22;571;50.930;6.926;2023-01-10T19:02:41;8.20;99.90
1165;DHT22;571;50.930;6.926;2023-01-10T19:05:08;8.10;99.90
1165;DHT22;571;50.930;6.926;2023-01-10T19:07:36;8.10;99.90
1165;DHT22;571;50.930;6.926;2023-01-10T19:10:03;8.20;99.90
1165;DHT22;571;50.930;6.926;2023-01-10T19:12:30;8.30;99.90
1165;DHT22;571;50.930;6.926;2023-01-10T19:15:00;8.20;99.90
1165;DHT22;571;50.930;6.926;2023-01-10T19:17:28;8.20;99.90
1165;DHT22;571;50.930;6.926;2023-01-10T19:19:55;8.30;99.90
1165;DHT22;571;50.930;6.926;2023-01-10T19:22:21;8.20;99.90
1165;DHT22;571;50.930;6.926;2023-01-10T19:24:50;8.30;99.90
1165;DHT22;571;50.930;6.926;2023-01-10T19:27:16;8.20;99.90
1165;DHT22;571;50.930;6.926;2023-01-10T19:29:45;8.20;99.90
1165;DHT22;571;50.930;6.926;2023-01-10T19:32:13;8.20;99.90
1165;DHT22;571;50.930;6.926;2023-01-10T19:34:40;8.30;99.90
1165;DHT22;571;50.930;6.926;2023-01-10T19:37:06;8.30;99.90
1165;DHT22;571;50.930;6.926;2023-01-10T19:39:33;8.20;99.90
1165;DHT22;571;50.930;6.926;2023-01-10T19:42:02;8.30;99.90
1165;DHT22;571;50.930;6.926;2023-01-10T19:44:29;8.30;99.90
1165;DHT22;571;50.930;6.926;2023-01-10T19:46:56;8.40;99.90
1165;DHT22;571;50.930;6.926;2023-01-10T19:49:23;8.40;99.90
1165;DHT22;571;50.930;6.926;2023-01-10T19:51:50;8.60;99.90
1165;DHT22;571;50.930;6.926;2023-01-10T19:54:18;8.50;99.90
1165;DHT22;571;50.930;6.926;2023-01-10T19:56:45;8.50;99.90
1165;DHT22;571;50.930;6.926;2023-01-10T19:59:13;8.50;99.90
1165;DHT22;571;50.930;6.926;2023-01-10T20:01:42;8.40;99.90
1165;DHT22;571;50.930;6.926;2023-01-10T20:04:09;8.40;99.90
1165;DHT22;571;50.930;6.926;2023-01-10T20:06:38;8.40;99.90
1165;DHT22;571;50.930;6.926;2023-01-10T20:09:06;8.50;99.90
1165;DHT22;571;50.930;6.926;2023-01-10T20:11:34;8.60;99.90
1165;DHT22;571;50.930;6.926;2023-01-10T20:14:03;8.60;99.90
1165;DHT22;571;50.930;6.926;2023-01-10T20:16:32;8.60;99.90
1165;DHT22;571;50.930;6.926;2023-01-10T20:18:59;8.70;99.90
1165;DHT22;571;50.930;6.926;2023-01-10T20:21:26;8.60;99.90
1165;DHT22;571;50.930;6.926;2023-01-10T20:23:53;8.70;99.90
1165;DHT22;571;50.930;6.926;2023-01-10T20:26:21;8.70;99.90
1165;DHT22;571;50.930;6.926;2023-01-10T20:28:50;8.70;99.90
1165;DHT22;571;50.930;6.926;2023-01-10T20:31:19;8.80;99.90
1165;DHT22;571;50.930;6.926;2023-01-10T20:33:48;8.80;99.90
1165;DHT22;571;50.930;6.926;2023-01-10T20:36:17;8.70;99.90